createdAt,value
2019-01-30T00:00:39.572Z,22.55
2019-01-30T00:01:15.884Z,27.17
2019-01-30T00:01:48.352Z,23.42
2019-01-30T00:02:20.824Z,23.55
2019-01-30T00:02:53.295Z,22.25
2019-01-30T00:03:25.766Z,23.90
2019-01-30T00:03:58.225Z,27.50
2019-01-30T00:04:30.689Z,23.12
2019-01-30T00:05:04.139Z,27.35
2019-01-30T00:05:36.847Z,23.38
2019-01-30T00:06:09.752Z,28.55
2019-01-30T00:06:42.251Z,21.55
2019-01-30T00:07:14.723Z,24.80
2019-01-30T00:07:47.598Z,27.10
2019-01-30T00:08:20.081Z,28.30
2019-01-30T00:08:52.853Z,34.20
2019-01-30T00:09:25.323Z,26.80
2019-01-30T00:09:57.778Z,19.87
2019-01-30T00:10:30.554Z,26.02
2019-01-30T00:11:03.272Z,30.17
2019-01-30T00:11:36.018Z,24.80
2019-01-30T00:12:09.905Z,25.00
2019-01-30T00:12:42.492Z,31.10
2019-01-30T00:13:15.321Z,21.10
2019-01-30T00:13:48.092Z,21.52
2019-01-30T00:14:20.541Z,22.65
2019-01-30T00:14:53.015Z,26.95
2019-01-30T00:15:25.778Z,25.88
2019-01-30T00:15:58.263Z,24.80
2019-01-30T00:16:30.732Z,23.18
2019-01-30T00:17:03.392Z,21.60
2019-01-30T00:17:36.237Z,36.05
2019-01-30T00:18:08.708Z,24.63
2019-01-30T00:18:41.176Z,30.97
2019-01-30T00:19:13.959Z,22.60
2019-01-30T00:19:46.794Z,25.60
2019-01-30T00:20:19.573Z,23.07
2019-01-30T00:20:52.039Z,32.55
2019-01-30T00:21:24.489Z,22.07
2019-01-30T00:21:57.661Z,25.85
2019-01-30T00:22:30.436Z,23.83
2019-01-30T00:23:02.922Z,22.13
2019-01-30T00:23:35.387Z,25.90
2019-01-30T00:24:08.227Z,22.07
2019-01-30T00:24:40.700Z,32.88
2019-01-30T00:25:13.384Z,22.50
2019-01-30T00:25:45.849Z,22.15
2019-01-30T00:26:18.756Z,29.52
2019-01-30T00:26:51.227Z,29.32
2019-01-30T00:27:23.686Z,23.18
2019-01-30T00:27:56.169Z,23.57
2019-01-30T00:28:28.666Z,28.77
2019-01-30T00:29:01.126Z,22.65
2019-01-30T00:29:33.616Z,23.73
2019-01-30T00:30:07.659Z,25.52
2019-01-30T00:30:40.136Z,19.45
2019-01-30T00:31:12.947Z,24.43
2019-01-30T00:31:45.404Z,25.72
2019-01-30T00:32:18.316Z,25.43
2019-01-30T00:32:50.782Z,21.75
2019-01-30T00:33:23.239Z,32.80
2019-01-30T00:33:55.734Z,31.15
2019-01-30T00:34:28.191Z,29.23
2019-01-30T00:35:01.031Z,27.05
2019-01-30T00:35:33.852Z,25.32
2019-01-30T00:36:06.311Z,29.23
2019-01-30T00:36:38.784Z,23.73
2019-01-30T00:37:11.242Z,31.30
2019-01-30T00:37:43.726Z,32.15
2019-01-30T00:38:16.502Z,30.82
2019-01-30T00:38:49.280Z,37.98
2019-01-30T00:39:22.161Z,28.05
2019-01-30T00:39:54.633Z,33.98
2019-01-30T00:40:27.094Z,35.13
2019-01-30T00:40:59.562Z,30.10
2019-01-30T00:41:32.035Z,28.98
2019-01-30T00:42:04.791Z,35.25
2019-01-30T00:42:37.251Z,32.40
2019-01-30T00:43:09.716Z,31.97
2019-01-30T00:43:42.580Z,34.43
2019-01-30T00:44:15.038Z,27.35
2019-01-30T00:44:47.839Z,43.28
2019-01-30T00:45:20.719Z,27.25
2019-01-30T00:45:53.190Z,35.65
2019-01-30T00:46:25.668Z,32.48
2019-01-30T00:46:58.599Z,26.15
2019-01-30T00:47:31.054Z,31.62
2019-01-30T00:48:03.930Z,40.43
2019-01-30T00:48:36.400Z,36.75
2019-01-30T00:49:09.208Z,26.93
2019-01-30T00:49:42.053Z,31.30
2019-01-30T00:50:14.882Z,29.55
2019-01-30T00:50:47.393Z,32.42
2019-01-30T00:51:19.844Z,32.08
2019-01-30T00:51:53.048Z,33.23
2019-01-30T00:52:25.515Z,28.27
2019-01-30T00:52:58.270Z,26.97
2019-01-30T00:53:30.841Z,29.80
2019-01-30T00:54:03.701Z,33.65
2019-01-30T00:54:36.171Z,30.12
2019-01-30T00:55:10.570Z,32.88
2019-01-30T00:55:43.078Z,32.65
2019-01-30T00:56:16.239Z,36.05
2019-01-30T00:56:48.727Z,31.35
2019-01-30T00:57:21.711Z,36.38
2019-01-30T00:57:54.175Z,28.98
2019-01-30T00:58:26.633Z,35.40
2019-01-30T00:58:59.093Z,34.43
2019-01-30T00:59:31.563Z,43.05
2019-01-30T01:00:14.447Z,30.50
2019-01-30T01:00:42.309Z,31.62
2019-01-30T01:01:14.816Z,35.78
2019-01-30T01:01:47.285Z,30.15
2019-01-30T01:02:19.734Z,31.50
2019-01-30T01:02:52.211Z,30.08
2019-01-30T01:03:24.675Z,34.73
2019-01-30T01:03:57.163Z,40.15
2019-01-30T01:04:29.632Z,41.53
2019-01-30T01:05:02.096Z,40.90
2019-01-30T01:05:34.566Z,43.42
2019-01-30T01:06:07.040Z,29.48
2019-01-30T01:06:39.534Z,31.68
2019-01-30T01:07:12.011Z,37.10
2019-01-30T01:07:44.693Z,29.55
2019-01-30T01:08:17.717Z,31.62
2019-01-30T01:08:50.170Z,30.77
2019-01-30T01:09:22.626Z,35.92
2019-01-30T01:09:55.411Z,35.33
2019-01-30T01:10:27.978Z,35.03
2019-01-30T01:11:00.437Z,31.27
2019-01-30T01:11:32.911Z,29.87
2019-01-30T01:12:05.405Z,33.30
2019-01-30T01:12:37.891Z,36.75
2019-01-30T01:13:10.360Z,31.55
2019-01-30T01:13:42.827Z,33.53
2019-01-30T01:14:15.582Z,34.30
2019-01-30T01:14:48.363Z,39.53
2019-01-30T01:15:20.814Z,32.80
2019-01-30T01:15:53.297Z,33.15
2019-01-30T01:16:25.754Z,34.20
2019-01-30T01:16:58.227Z,31.40
2019-01-30T01:17:30.722Z,32.00
2019-01-30T01:18:03.853Z,36.30
2019-01-30T01:18:37.044Z,31.48
2019-01-30T01:19:09.520Z,31.95
2019-01-30T01:19:41.975Z,31.85
2019-01-30T01:20:14.563Z,33.33
2019-01-30T01:20:47.419Z,35.00
2019-01-30T01:21:20.261Z,32.55
2019-01-30T01:21:52.713Z,33.60
2019-01-30T01:22:25.207Z,31.15
2019-01-30T01:22:57.702Z,36.70
2019-01-30T01:23:30.154Z,39.50
2019-01-30T01:24:02.615Z,39.20
2019-01-30T01:24:35.108Z,35.43
2019-01-30T01:25:10.361Z,29.60
2019-01-30T01:25:42.832Z,34.85
2019-01-30T01:26:15.294Z,37.67
2019-01-30T01:26:47.776Z,32.17
2019-01-30T01:27:20.591Z,36.88
2019-01-30T01:27:53.379Z,36.13
2019-01-30T01:28:26.138Z,37.13
2019-01-30T01:28:58.622Z,42.58
2019-01-30T01:29:31.436Z,38.75
2019-01-30T01:30:06.518Z,33.88
2019-01-30T01:30:38.985Z,41.80
2019-01-30T01:31:11.455Z,44.77
2019-01-30T01:31:44.422Z,37.50
2019-01-30T01:32:16.890Z,33.58
2019-01-30T01:32:49.362Z,35.30
2019-01-30T01:33:23.636Z,32.17
2019-01-30T01:33:56.199Z,34.92
2019-01-30T01:34:28.927Z,46.35
2019-01-30T01:35:01.427Z,32.08
2019-01-30T01:35:34.283Z,41.58
2019-01-30T01:36:06.850Z,42.00
2019-01-30T01:36:40.019Z,43.20
2019-01-30T01:37:12.474Z,36.68
2019-01-30T01:37:44.933Z,41.13
2019-01-30T01:38:17.798Z,34.40
2019-01-30T01:38:50.266Z,35.35
2019-01-30T01:39:23.335Z,36.75
2019-01-30T01:39:55.796Z,34.53
2019-01-30T01:40:28.257Z,34.27
2019-01-30T01:41:00.732Z,33.13
2019-01-30T01:41:33.201Z,36.40
2019-01-30T01:42:05.668Z,39.50
2019-01-30T01:42:38.138Z,30.50
2019-01-30T01:43:10.878Z,34.95
2019-01-30T01:43:43.342Z,43.83
2019-01-30T01:44:15.802Z,34.20
2019-01-30T01:44:48.589Z,40.08
2019-01-30T01:45:22.050Z,35.20
2019-01-30T01:45:54.519Z,38.85
2019-01-30T01:46:26.982Z,41.68
2019-01-30T01:46:59.453Z,36.75
2019-01-30T01:47:31.934Z,38.38
2019-01-30T01:48:04.401Z,39.45
2019-01-30T01:48:36.928Z,29.35
2019-01-30T01:49:09.398Z,29.48
2019-01-30T01:49:42.306Z,35.85
2019-01-30T01:50:18.037Z,46.33
2019-01-30T01:50:50.854Z,37.93
2019-01-30T01:51:23.730Z,36.63
2019-01-30T01:51:56.194Z,34.13
2019-01-30T01:52:28.668Z,31.68
2019-01-30T01:53:01.139Z,37.63
2019-01-30T01:53:33.608Z,36.35
2019-01-30T01:54:06.075Z,33.25
2019-01-30T01:54:38.534Z,36.58
2019-01-30T01:55:11.135Z,35.28
2019-01-30T01:55:43.625Z,40.48
2019-01-30T01:56:16.099Z,40.25
2019-01-30T01:56:48.566Z,38.75
2019-01-30T01:57:21.378Z,47.83
2019-01-30T01:57:53.843Z,36.63
2019-01-30T01:58:26.314Z,37.75
2019-01-30T01:58:59.098Z,38.33
2019-01-30T01:59:31.557Z,33.78
2019-01-30T02:00:07.418Z,32.55
2019-01-30T02:00:40.279Z,35.38
2019-01-30T02:01:12.776Z,40.55
2019-01-30T02:01:45.246Z,35.43
2019-01-30T02:02:18.075Z,48.65
2019-01-30T02:02:51.457Z,33.75
2019-01-30T02:03:23.931Z,37.10
2019-01-30T02:03:56.433Z,36.35
2019-01-30T02:04:28.907Z,34.92
2019-01-30T02:05:01.434Z,39.00
2019-01-30T02:05:34.583Z,34.40
2019-01-30T02:06:07.166Z,32.63
2019-01-30T02:06:40.013Z,38.30
2019-01-30T02:07:12.487Z,40.58
2019-01-30T02:07:44.947Z,34.85
2019-01-30T02:08:17.763Z,40.60
2019-01-30T02:08:50.241Z,32.03
2019-01-30T02:09:22.702Z,36.70
2019-01-30T02:09:55.179Z,35.92
2019-01-30T02:10:27.640Z,33.40
2019-01-30T02:11:00.119Z,40.08
2019-01-30T02:11:32.573Z,39.25
2019-01-30T02:12:05.180Z,36.85
2019-01-30T02:12:37.639Z,36.08
2019-01-30T02:13:10.111Z,38.78
2019-01-30T02:13:42.570Z,43.10
2019-01-30T02:14:15.034Z,37.17
2019-01-30T02:14:47.515Z,46.20
2019-01-30T02:15:21.255Z,36.75
2019-01-30T02:15:53.720Z,42.70
2019-01-30T02:16:26.174Z,37.80
2019-01-30T02:16:58.655Z,33.23
2019-01-30T02:17:31.146Z,40.78
2019-01-30T02:18:04.546Z,33.95
2019-01-30T02:18:37.451Z,30.92
2019-01-30T02:19:09.918Z,32.73
2019-01-30T02:19:42.433Z,46.33
2019-01-30T02:20:17.076Z,46.00
2019-01-30T02:20:49.947Z,43.23
2019-01-30T02:21:23.520Z,47.70
2019-01-30T02:21:55.987Z,33.30
2019-01-30T02:22:28.438Z,39.67
2019-01-30T02:23:01.719Z,39.30
2019-01-30T02:23:34.479Z,38.63
2019-01-30T02:24:06.941Z,37.83
2019-01-30T02:24:39.410Z,41.77
2019-01-30T02:25:11.983Z,37.08
2019-01-30T02:25:44.434Z,41.15
2019-01-30T02:26:16.897Z,36.83
2019-01-30T02:26:49.372Z,40.17
2019-01-30T02:27:21.848Z,39.85
2019-01-30T02:27:54.426Z,41.33
2019-01-30T02:28:27.247Z,40.17
2019-01-30T02:29:00.108Z,42.17
2019-01-30T02:29:32.575Z,39.63
2019-01-30T02:30:09.384Z,38.67
2019-01-30T02:30:47.466Z,36.58
2019-01-30T02:31:16.445Z,44.67
2019-01-30T02:31:48.905Z,40.65
2019-01-30T02:32:21.389Z,44.90
2019-01-30T02:32:53.894Z,43.78
2019-01-30T02:33:26.350Z,42.08
2019-01-30T02:33:59.432Z,37.35
2019-01-30T02:34:31.904Z,39.50
2019-01-30T02:35:04.475Z,39.45
2019-01-30T02:35:36.943Z,41.77
2019-01-30T02:36:09.419Z,36.17
2019-01-30T02:36:57.579Z,44.42
2019-01-30T02:37:30.369Z,39.90
2019-01-30T02:38:03.152Z,39.08
2019-01-30T02:38:36.024Z,36.90
2019-01-30T02:39:08.521Z,41.08
2019-01-30T02:39:40.999Z,41.70
2019-01-30T02:40:15.893Z,36.55
2019-01-30T02:40:48.340Z,41.10
2019-01-30T02:41:20.946Z,35.05
2019-01-30T02:41:53.542Z,44.15
2019-01-30T02:42:26.016Z,41.00
2019-01-30T02:42:59.631Z,38.17
2019-01-30T02:43:32.077Z,40.43
2019-01-30T02:44:04.650Z,40.90
2019-01-30T02:44:37.149Z,43.38
2019-01-30T02:45:10.850Z,33.88
2019-01-30T02:45:43.331Z,41.83
2019-01-30T02:46:15.840Z,39.90
2019-01-30T02:46:48.294Z,40.08
2019-01-30T02:47:20.764Z,35.85
2019-01-30T02:47:53.336Z,41.92
2019-01-30T02:48:25.804Z,38.75
2019-01-30T02:48:58.271Z,44.95
2019-01-30T02:49:30.751Z,35.48
2019-01-30T02:50:05.128Z,35.75
2019-01-30T02:50:37.582Z,39.65
2019-01-30T02:51:10.055Z,38.63
2019-01-30T02:51:42.525Z,44.45
2019-01-30T02:52:15.024Z,46.58
2019-01-30T02:52:47.683Z,36.28
2019-01-30T02:53:20.142Z,45.85
2019-01-30T02:53:52.611Z,39.67
2019-01-30T02:54:25.067Z,40.65
2019-01-30T02:54:57.536Z,39.70
2019-01-30T02:55:30.493Z,40.65
2019-01-30T02:56:03.071Z,35.63
2019-01-30T02:56:35.813Z,38.40
2019-01-30T02:57:08.291Z,35.60
2019-01-30T02:57:40.752Z,41.60
2019-01-30T02:58:13.616Z,38.15
2019-01-30T02:58:46.365Z,47.90
2019-01-30T02:59:19.315Z,42.80
2019-01-30T02:59:51.784Z,33.20
2019-01-30T03:00:26.565Z,45.65
2019-01-30T03:00:59.717Z,35.55
2019-01-30T03:01:34.077Z,37.80
2019-01-30T03:02:25.116Z,30.48
2019-01-30T03:02:57.696Z,35.60
2019-01-30T03:03:30.171Z,33.33
2019-01-30T03:04:02.633Z,36.00
2019-01-30T03:04:35.523Z,40.60
2019-01-30T03:05:09.795Z,36.38
2019-01-30T03:05:42.262Z,41.50
2019-01-30T03:06:15.022Z,35.98
2019-01-30T03:06:47.497Z,39.98
2019-01-30T03:07:20.218Z,33.67
2019-01-30T03:07:52.691Z,34.30
2019-01-30T03:08:25.160Z,33.80
2019-01-30T03:08:57.622Z,42.65
2019-01-30T03:09:30.082Z,40.63
2019-01-30T03:10:03.600Z,34.65
2019-01-30T03:10:36.060Z,36.13
2019-01-30T03:11:08.531Z,34.55
2019-01-30T03:11:41.022Z,37.85
2019-01-30T03:12:13.487Z,36.53
2019-01-30T03:12:45.953Z,33.73
2019-01-30T03:13:18.427Z,38.15
2019-01-30T03:13:50.879Z,43.63
2019-01-30T03:14:23.349Z,36.70
2019-01-30T03:14:56.107Z,35.00
2019-01-30T03:15:28.565Z,45.50
2019-01-30T03:16:01.040Z,36.80
2019-01-30T03:16:33.503Z,38.02
2019-01-30T03:17:05.997Z,42.20
2019-01-30T03:17:38.450Z,42.50
2019-01-30T03:18:10.915Z,36.13
2019-01-30T03:18:43.704Z,39.73
2019-01-30T03:19:16.162Z,43.20
2019-01-30T03:19:48.621Z,42.80
2019-01-30T03:20:23.096Z,38.73
2019-01-30T03:20:55.552Z,41.23
2019-01-30T03:21:28.398Z,34.73
2019-01-30T03:22:00.875Z,38.20
2019-01-30T03:22:33.739Z,39.00
2019-01-30T03:23:06.634Z,36.98
2019-01-30T03:23:39.438Z,38.25
2019-01-30T03:24:11.904Z,45.88
2019-01-30T03:24:44.361Z,35.33
2019-01-30T03:25:17.482Z,36.80
2019-01-30T03:25:50.298Z,34.58
2019-01-30T03:26:23.101Z,33.40
2019-01-30T03:26:55.563Z,39.25
2019-01-30T03:27:28.038Z,30.52
2019-01-30T03:28:00.537Z,35.83
2019-01-30T03:28:32.987Z,39.55
2019-01-30T03:29:05.829Z,38.88
2019-01-30T03:29:38.295Z,38.88
2019-01-30T03:30:16.731Z,37.50
2019-01-30T03:30:49.177Z,34.88
2019-01-30T03:31:21.678Z,38.70
2019-01-30T03:31:54.544Z,37.05
2019-01-30T03:32:27.003Z,29.05
2019-01-30T03:32:59.922Z,30.80
2019-01-30T03:33:32.416Z,36.28
2019-01-30T03:34:04.878Z,39.27
2019-01-30T03:34:37.348Z,37.45
2019-01-30T03:35:09.818Z,31.85
2019-01-30T03:35:42.288Z,34.50
2019-01-30T03:36:14.753Z,30.82
2019-01-30T03:36:47.202Z,34.00
2019-01-30T03:37:19.970Z,31.35
2019-01-30T03:37:52.430Z,30.23
2019-01-30T03:38:25.169Z,30.95
2019-01-30T03:38:57.666Z,38.35
2019-01-30T03:39:30.450Z,35.10
2019-01-30T03:40:05.008Z,28.30
2019-01-30T03:40:37.476Z,38.70
2019-01-30T03:41:09.946Z,30.85
2019-01-30T03:41:43.276Z,34.73
2019-01-30T03:42:16.047Z,36.80
2019-01-30T03:42:48.850Z,35.45
2019-01-30T03:43:21.306Z,39.08
2019-01-30T03:43:53.783Z,37.10
2019-01-30T03:44:26.280Z,35.73
2019-01-30T03:44:58.743Z,29.18
2019-01-30T03:45:31.214Z,41.35
2019-01-30T03:46:03.802Z,35.63
2019-01-30T03:46:36.261Z,32.30
2019-01-30T03:47:09.016Z,30.88
2019-01-30T03:47:41.480Z,36.20
2019-01-30T03:48:14.233Z,37.67
2019-01-30T03:48:47.002Z,28.47
2019-01-30T03:49:19.466Z,29.23
2019-01-30T03:49:51.967Z,30.55
2019-01-30T03:50:24.443Z,29.80
2019-01-30T03:50:57.195Z,30.82
2019-01-30T03:51:29.654Z,32.30
2019-01-30T03:52:02.493Z,33.60
2019-01-30T03:52:34.951Z,37.88
2019-01-30T03:53:07.456Z,32.50
2019-01-30T03:53:39.911Z,36.23
2019-01-30T03:54:12.387Z,31.85
2019-01-30T03:54:45.060Z,36.40
2019-01-30T03:55:18.028Z,44.20
2019-01-30T03:55:50.847Z,32.55
2019-01-30T03:56:23.329Z,29.67
2019-01-30T03:56:55.801Z,37.20
2019-01-30T03:57:28.970Z,40.50
2019-01-30T03:58:02.096Z,27.75
2019-01-30T03:58:34.675Z,38.40
2019-01-30T03:59:07.111Z,32.60
2019-01-30T03:59:39.584Z,29.65
2019-01-30T04:00:15.134Z,41.73
2019-01-30T04:00:47.631Z,35.63
2019-01-30T04:01:26.415Z,34.65
2019-01-30T04:01:54.652Z,37.38
2019-01-30T04:02:27.712Z,34.83
2019-01-30T04:03:00.360Z,30.90
2019-01-30T04:03:33.138Z,37.42
2019-01-30T04:04:05.950Z,36.17
2019-01-30T04:04:38.411Z,29.48
2019-01-30T04:05:10.990Z,29.20
2019-01-30T04:05:43.445Z,38.02
2019-01-30T04:06:16.061Z,31.52
2019-01-30T04:06:48.540Z,29.60
2019-01-30T04:07:21.019Z,33.38
2019-01-30T04:07:53.491Z,30.02
2019-01-30T04:08:25.957Z,28.67
2019-01-30T04:08:58.422Z,28.67
2019-01-30T04:09:31.231Z,28.05
2019-01-30T04:10:04.880Z,27.60
2019-01-30T04:10:37.338Z,26.75
2019-01-30T04:11:09.807Z,23.45
2019-01-30T04:11:42.409Z,32.03
2019-01-30T04:12:14.875Z,32.90
2019-01-30T04:12:47.326Z,32.83
2019-01-30T04:13:19.786Z,30.75
2019-01-30T04:13:52.559Z,27.82
2019-01-30T04:14:25.047Z,27.22
2019-01-30T04:14:57.802Z,29.82
2019-01-30T04:15:30.267Z,38.25
2019-01-30T04:16:03.059Z,35.55
2019-01-30T04:16:36.159Z,27.85
2019-01-30T04:17:08.999Z,30.52
2019-01-30T04:17:41.741Z,29.57
2019-01-30T04:18:14.615Z,34.55
2019-01-30T04:18:47.086Z,29.00
2019-01-30T04:19:19.555Z,30.95
2019-01-30T04:19:52.013Z,29.30
2019-01-30T04:20:24.491Z,29.90
2019-01-30T04:20:56.953Z,32.28
2019-01-30T04:21:29.421Z,26.02
2019-01-30T04:22:01.878Z,32.58
2019-01-30T04:22:34.407Z,28.07
2019-01-30T04:23:06.869Z,30.48
2019-01-30T04:23:40.071Z,24.77
2019-01-30T04:24:12.547Z,35.90
2019-01-30T04:24:45.003Z,35.75
2019-01-30T04:25:17.795Z,34.27
2019-01-30T04:25:50.299Z,29.65
2019-01-30T04:26:23.909Z,36.42
2019-01-30T04:26:56.666Z,32.60
2019-01-30T04:27:29.640Z,31.60
2019-01-30T04:28:02.140Z,29.55
2019-01-30T04:28:34.603Z,33.95
2019-01-30T04:29:07.072Z,34.67
2019-01-30T04:29:39.891Z,31.25
2019-01-30T04:30:17.598Z,34.50
2019-01-30T04:30:50.086Z,34.27
2019-01-30T04:31:22.539Z,26.73
2019-01-30T04:31:55.002Z,30.00
2019-01-30T04:32:27.472Z,29.25
2019-01-30T04:33:00.290Z,34.05
2019-01-30T04:33:32.786Z,30.77
2019-01-30T04:34:05.368Z,25.65
2019-01-30T04:34:37.839Z,33.35
2019-01-30T04:35:10.402Z,39.42
2019-01-30T04:35:42.872Z,33.60
2019-01-30T04:36:15.327Z,31.17
2019-01-30T04:36:48.326Z,26.33
2019-01-30T04:37:21.080Z,33.92
2019-01-30T04:37:54.281Z,28.80
2019-01-30T04:38:26.759Z,33.55
2019-01-30T04:38:59.281Z,31.23
2019-01-30T04:39:32.166Z,28.62
2019-01-30T04:40:06.078Z,35.20
2019-01-30T04:40:38.547Z,26.23
2019-01-30T04:41:11.399Z,32.40
2019-01-30T04:41:44.263Z,25.45
2019-01-30T04:42:16.745Z,28.20
2019-01-30T04:42:49.501Z,30.40
2019-01-30T04:43:21.977Z,24.27
2019-01-30T04:43:54.727Z,29.52
2019-01-30T04:44:27.611Z,28.60
2019-01-30T04:45:00.371Z,28.95
2019-01-30T04:45:32.838Z,36.00
2019-01-30T04:46:05.316Z,25.37
2019-01-30T04:46:38.072Z,33.15
2019-01-30T04:47:10.592Z,27.10
2019-01-30T04:47:43.316Z,26.75
2019-01-30T04:48:15.748Z,35.50
2019-01-30T04:48:48.675Z,44.45
2019-01-30T04:49:21.156Z,38.13
2019-01-30T04:49:53.647Z,33.05
2019-01-30T04:50:26.110Z,30.95
2019-01-30T04:50:58.580Z,37.08
2019-01-30T04:51:31.332Z,31.45
2019-01-30T04:52:04.512Z,32.75
2019-01-30T04:52:36.980Z,33.18
2019-01-30T04:53:10.043Z,31.23
2019-01-30T04:53:42.572Z,32.78
2019-01-30T04:54:15.037Z,31.25
2019-01-30T04:54:47.488Z,37.85
2019-01-30T04:55:20.006Z,32.35
2019-01-30T04:55:52.465Z,31.90
2019-01-30T04:56:25.370Z,33.35
2019-01-30T04:56:57.847Z,33.60
2019-01-30T04:57:30.339Z,32.85
2019-01-30T04:58:03.190Z,32.73
2019-01-30T04:58:35.660Z,37.88
2019-01-30T04:59:08.273Z,30.57
2019-01-30T04:59:40.748Z,29.52
2019-01-30T05:00:16.361Z,30.68
2019-01-30T05:00:48.871Z,27.35
2019-01-30T05:01:21.328Z,34.88
2019-01-30T05:01:53.807Z,29.60
2019-01-30T05:02:26.282Z,37.53
2019-01-30T05:02:58.741Z,29.72
2019-01-30T05:03:31.231Z,37.23
2019-01-30T05:04:03.814Z,34.85
2019-01-30T05:04:36.560Z,36.93
2019-01-30T05:05:10.048Z,31.15
2019-01-30T05:05:42.507Z,34.95
2019-01-30T05:06:15.041Z,30.43
2019-01-30T05:06:47.512Z,35.95
2019-01-30T05:07:19.992Z,35.75
2019-01-30T05:07:52.464Z,34.63
2019-01-30T05:08:25.253Z,35.88
2019-01-30T05:08:57.735Z,33.80
2019-01-30T05:09:30.197Z,32.05
2019-01-30T05:10:02.902Z,38.17
2019-01-30T05:10:35.376Z,44.20
2019-01-30T05:11:07.848Z,30.68
2019-01-30T05:11:40.364Z,44.25
2019-01-30T05:12:12.840Z,36.93
2019-01-30T05:12:45.680Z,34.00
2019-01-30T05:13:18.167Z,35.80
2019-01-30T05:13:51.032Z,45.65
2019-01-30T05:14:23.641Z,38.67
2019-01-30T05:14:56.083Z,38.95
2019-01-30T05:15:28.552Z,37.30
2019-01-30T05:16:01.026Z,34.10
2019-01-30T05:16:34.317Z,45.70
2019-01-30T05:17:06.828Z,33.92
2019-01-30T05:17:39.294Z,39.95
2019-01-30T05:18:11.770Z,38.90
2019-01-30T05:18:44.610Z,37.15
2019-01-30T05:19:17.101Z,36.50
2019-01-30T05:19:50.626Z,38.60
2019-01-30T05:20:23.094Z,35.75
2019-01-30T05:20:55.959Z,28.30
2019-01-30T05:21:28.926Z,36.58
2019-01-30T05:22:01.743Z,33.42
2019-01-30T05:22:34.223Z,29.95
2019-01-30T05:23:06.710Z,37.35
2019-01-30T05:23:39.704Z,41.65
2019-01-30T05:24:12.507Z,32.17
2019-01-30T05:24:44.975Z,40.55
2019-01-30T05:25:17.545Z,39.18
2019-01-30T05:25:50.008Z,37.80
2019-01-30T05:26:22.470Z,33.78
2019-01-30T05:26:55.079Z,36.58
2019-01-30T05:27:27.827Z,39.40
2019-01-30T05:28:00.658Z,39.38
2019-01-30T05:28:33.110Z,52.05
2019-01-30T05:29:05.678Z,47.38
2019-01-30T05:29:38.503Z,39.20
2019-01-30T05:30:14.798Z,41.40
2019-01-30T05:30:47.255Z,38.53
2019-01-30T05:31:21.976Z,32.28
2019-01-30T05:32:00.984Z,41.88
2019-01-30T05:32:28.910Z,36.88
2019-01-30T05:33:01.758Z,37.03
2019-01-30T05:33:34.671Z,40.15
2019-01-30T05:34:07.500Z,51.20
2019-01-30T05:34:39.965Z,38.05
2019-01-30T05:35:12.439Z,37.10
2019-01-30T05:35:45.227Z,34.83
2019-01-30T05:36:18.035Z,33.33
2019-01-30T05:36:51.301Z,33.40
2019-01-30T05:37:23.783Z,36.15
2019-01-30T05:37:56.259Z,36.28
2019-01-30T05:38:28.720Z,38.65
2019-01-30T05:39:01.215Z,39.83
2019-01-30T05:39:34.058Z,39.67
2019-01-30T05:40:09.523Z,38.00
2019-01-30T05:40:42.006Z,37.90
2019-01-30T05:41:14.480Z,39.42
2019-01-30T05:41:46.938Z,40.30
2019-01-30T05:42:19.415Z,41.83
2019-01-30T05:42:51.876Z,44.85
2019-01-30T05:43:24.454Z,38.75
2019-01-30T05:43:57.020Z,46.48
2019-01-30T05:44:29.515Z,51.08
2019-01-30T05:45:01.979Z,73.22
2019-01-30T05:45:34.441Z,63.00
2019-01-30T05:46:06.918Z,67.62
2019-01-30T05:46:39.397Z,62.15
2019-01-30T05:47:12.190Z,63.20
2019-01-30T05:47:44.661Z,57.98
2019-01-30T05:48:17.875Z,54.80
2019-01-30T05:48:50.755Z,56.28
2019-01-30T05:49:23.238Z,47.33
2019-01-30T05:49:55.719Z,47.45
2019-01-30T05:50:28.541Z,48.05
2019-01-30T05:51:01.303Z,42.50
2019-01-30T05:51:33.763Z,40.33
2019-01-30T05:52:06.236Z,44.15
2019-01-30T05:52:39.121Z,40.10
2019-01-30T05:53:11.578Z,42.65
2019-01-30T05:53:44.397Z,44.93
2019-01-30T05:54:17.188Z,46.35
2019-01-30T05:54:50.092Z,44.70
2019-01-30T05:55:22.600Z,37.33
2019-01-30T05:55:55.062Z,39.35
2019-01-30T05:56:27.522Z,39.42
2019-01-30T05:57:00.002Z,42.05
2019-01-30T05:57:32.453Z,45.52
2019-01-30T05:58:05.222Z,41.15
2019-01-30T05:58:37.682Z,36.80
2019-01-30T05:59:10.151Z,49.55
2019-01-30T05:59:42.605Z,45.28
2019-01-30T06:00:19.260Z,40.35
2019-01-30T06:00:51.778Z,43.10
2019-01-30T06:01:24.233Z,41.00
2019-01-30T06:01:57.183Z,38.28
2019-01-30T06:02:29.638Z,42.23
2019-01-30T06:03:02.146Z,41.00
2019-01-30T06:03:34.604Z,44.38
2019-01-30T06:04:07.536Z,52.58
2019-01-30T06:04:40.299Z,33.25
2019-01-30T06:05:12.884Z,50.65
2019-01-30T06:05:45.359Z,41.77
2019-01-30T06:06:17.851Z,36.75
2019-01-30T06:06:50.330Z,40.15
2019-01-30T06:07:23.617Z,40.45
2019-01-30T06:07:56.504Z,36.68
2019-01-30T06:08:32.969Z,43.52
2019-01-30T06:09:08.599Z,42.60
2019-01-30T06:09:44.937Z,47.20
2019-01-30T06:10:18.337Z,45.92
2019-01-30T06:10:51.145Z,45.52
2019-01-30T06:11:23.667Z,41.88
2019-01-30T06:11:56.143Z,40.17
2019-01-30T06:12:28.632Z,36.40
2019-01-30T06:13:01.114Z,42.58
2019-01-30T06:13:34.414Z,35.03
2019-01-30T06:14:06.899Z,38.88
2019-01-30T06:14:39.372Z,39.50
2019-01-30T06:15:12.627Z,43.78
2019-01-30T06:15:45.074Z,49.13
2019-01-30T06:16:17.531Z,41.60
2019-01-30T06:16:50.006Z,45.55
2019-01-30T06:17:22.457Z,35.63
2019-01-30T06:17:54.916Z,32.75
2019-01-30T06:18:27.404Z,38.98
2019-01-30T06:18:59.883Z,38.35
2019-01-30T06:19:32.351Z,38.55
2019-01-30T06:20:07.348Z,42.33
2019-01-30T06:20:39.813Z,37.78
2019-01-30T06:21:12.283Z,38.60
2019-01-30T06:21:44.752Z,40.60
2019-01-30T06:22:17.247Z,37.38
2019-01-30T06:22:49.707Z,38.65
2019-01-30T06:23:22.719Z,39.33
2019-01-30T06:23:55.194Z,38.75
2019-01-30T06:24:28.033Z,44.05
2019-01-30T06:25:00.498Z,38.25
2019-01-30T06:25:33.244Z,47.35
2019-01-30T06:26:05.706Z,33.92
2019-01-30T06:26:38.174Z,34.73
2019-01-30T06:27:10.631Z,40.30
2019-01-30T06:27:43.402Z,35.75
2019-01-30T06:28:15.870Z,39.45
2019-01-30T06:28:48.326Z,32.17
2019-01-30T06:29:20.785Z,35.75
2019-01-30T06:29:53.625Z,38.13
2019-01-30T06:30:26.510Z,42.13
2019-01-30T06:30:59.327Z,40.88
2019-01-30T06:31:31.795Z,37.05
2019-01-30T06:32:04.401Z,35.03
2019-01-30T06:32:36.892Z,37.90
2019-01-30T06:33:09.378Z,48.95
2019-01-30T06:33:41.852Z,30.40
2019-01-30T06:34:14.337Z,34.75
2019-01-30T06:34:46.939Z,40.98
2019-01-30T06:35:19.410Z,34.90
2019-01-30T06:35:51.877Z,36.95
2019-01-30T06:36:24.338Z,37.10
2019-01-30T06:36:56.832Z,44.45
2019-01-30T06:37:29.297Z,36.68
2019-01-30T06:38:02.218Z,37.73
2019-01-30T06:38:34.738Z,40.78
2019-01-30T06:39:07.506Z,38.10
2019-01-30T06:39:40.004Z,43.00
2019-01-30T06:40:15.141Z,37.05
2019-01-30T06:40:47.602Z,45.78
2019-01-30T06:41:20.080Z,43.15
2019-01-30T06:41:52.932Z,36.08
2019-01-30T06:42:25.407Z,34.33
2019-01-30T06:42:57.987Z,37.78
2019-01-30T06:43:30.468Z,39.30
2019-01-30T06:44:02.982Z,36.98
2019-01-30T06:44:35.445Z,38.28
2019-01-30T06:45:08.516Z,36.70
2019-01-30T06:45:41.287Z,38.15
2019-01-30T06:46:13.753Z,36.13
2019-01-30T06:46:46.216Z,36.80
2019-01-30T06:47:19.269Z,35.08
2019-01-30T06:47:51.849Z,38.85
2019-01-30T06:48:24.677Z,30.97
2019-01-30T06:48:57.134Z,35.00
2019-01-30T06:49:29.644Z,58.85
2019-01-30T06:50:02.224Z,38.92
2019-01-30T06:50:34.690Z,43.98
2019-01-30T06:51:07.174Z,41.80
2019-01-30T06:51:39.646Z,35.90
2019-01-30T06:52:12.106Z,35.58
2019-01-30T06:52:44.595Z,39.05
2019-01-30T06:53:17.500Z,39.80
2019-01-30T06:53:49.962Z,39.27
2019-01-30T06:54:22.435Z,32.30
2019-01-30T06:54:55.261Z,38.28
2019-01-30T06:55:27.750Z,37.85
2019-01-30T06:56:00.232Z,38.60
2019-01-30T06:56:32.702Z,37.88
2019-01-30T06:57:05.174Z,37.95
2019-01-30T06:57:38.685Z,35.68
2019-01-30T06:58:11.164Z,41.58
2019-01-30T06:58:44.027Z,33.38
2019-01-30T06:59:16.782Z,37.30
2019-01-30T06:59:49.567Z,42.35
2019-01-30T07:00:23.955Z,33.78
2019-01-30T07:00:56.443Z,36.53
2019-01-30T07:01:28.902Z,35.05
2019-01-30T07:02:01.369Z,45.75
2019-01-30T07:02:33.868Z,41.73